Time;durP1;ratioP1;P1;durP2;ratioP2;P2;SDS_P1;SDS_P2;PMS_P1;PMS_P2;Temp;Humidity;BMP_temperature;BMP_pressure;BME280_temperature;BME280_humidity;BME280_pressure;Samples;Min_cycle;Max_cycle;Signal;HPM_P1;HPM_P2
2021/06/01 00:01:38;;;;;;;5.13;3.50;;;;;;;7.82;79.26;98606.34;5050457;28;20022;-63
2021/06/01 00:04:06;;;;;;;5.78;3.78;;;;;;;7.86;79.90;98613.34;5049231;28;20024;-63
2021/06/01 00:06:32;;;;;;;5.80;3.50;;;;;;;7.81;80.01;98612.50;5048134;28;20068;-63
2021/06/01 00:08:57;;;;;;;8.93;3.45;;;;;;;7.72;80.14;98614.34;5049382;28;20018;-63
2021/06/01 00:11:23;;;;;;;4.10;3.20;;;;;;;7.67;80.16;98606.50;5057850;28;20135;-63
2021/06/01 00:13:48;;;;;;;6.10;3.40;;;;;;;7.58;80.90;98611.81;5058038;28;20027;-63
2021/06/01 00:16:15;;;;;;;4.32;2.92;;;;;;;7.66;80.70;98615.22;5058040;28;20033;-63
2021/06/01 00:18:42;;;;;;;5.53;3.60;;;;;;;7.66;80.92;98614.38;5057769;28;20054;-63
2021/06/01 00:21:08;;;;;;;5.15;3.38;;;;;;;7.57;80.17;98610.09;5056879;28;20021;-63
2021/06/01 00:23:37;;;;;;;4.65;3.35;;;;;;;7.54;80.39;98610.13;5056058;28;20035;-63
2021/06/01 00:26:02;;;;;;;4.97;3.65;;;;;;;7.57;80.42;98604.84;5048792;28;20032;-63
2021/06/01 00:28:28;;;;;;;5.70;3.83;;;;;;;7.51;81.26;98604.03;5050295;28;20308;-63
2021/06/01 00:30:53;;;;;;;5.60;3.53;;;;;;;7.50;80.58;98603.16;5057287;28;20103;-63
2021/06/01 00:33:19;;;;;;;4.15;3.10;;;;;;;7.51;80.26;98597.03;5057197;28;20048;-63
2021/06/01 00:35:44;;;;;;;7.43;3.58;;;;;;;7.38;81.15;98598.03;5053194;28;20342;-63
2021/06/01 00:38:09;;;;;;;4.82;3.00;;;;;;;7.40;80.91;98606.72;5057982;28;20092;-63
2021/06/01 00:40:35;;;;;;;4.10;3.15;;;;;;;7.42;80.04;98604.97;5059125;28;20127;-63
2021/06/01 00:43:00;;;;;;;4.07;2.90;;;;;;;7.44;80.19;98599.72;5056407;28;20365;-63
2021/06/01 00:45:26;;;;;;;4.05;2.72;;;;;;;7.40;79.81;98600.63;5050016;28;20017;-63
2021/06/01 00:47:52;;;;;;;6.88;3.40;;;;;;;7.35;80.37;98603.28;5047479;28;20027;-63
2021/06/01 00:50:21;;;;;;;4.57;3.10;;;;;;;7.33;80.52;98605.03;5049537;28;20027;-63
2021/06/01 00:52:48;;;;;;;3.88;3.03;;;;;;;7.24;80.52;98594.63;5053993;28;20021;-63
2021/06/01 00:55:13;;;;;;;5.18;2.88;;;;;;;7.32;80.45;98597.19;5058301;28;20025;-63
2021/06/01 00:57:39;;;;;;;5.15;2.88;;;;;;;7.13;80.82;98601.69;5055466;28;20044;-63
2021/06/01 01:00:13;;;;;;;4.93;3.55;;;;;;;7.18;80.77;98594.66;5047387;28;20022;-63
2021/06/01 01:02:38;;;;;;;3.33;2.70;;;;;;;7.11;81.45;98585.09;5057624;28;20093;-63
2021/06/01 01:05:07;;;;;;;4.28;3.05;;;;;;;7.12;81.29;98586.84;5051844;28;20022;-63
2021/06/01 01:07:44;;;;;;;3.35;2.90;;;;;;;6.95;81.49;98596.56;5058223;28;20120;-63
2021/06/01 01:10:15;;;;;;;6.25;3.53;;;;;;;6.86;82.15;98596.59;5047557;28;20017;-63
2021/06/01 01:12:45;;;;;;;5.60;3.35;;;;;;;6.94;82.40;98592.22;5049864;28;20018;-63
2021/06/01 01:15:11;;;;;;;4.13;2.90;;;;;;;6.92;81.77;98586.09;5055685;28;20391;-63
2021/06/01 01:17:45;;;;;;;7.93;3.38;;;;;;;6.90;82.03;98590.50;5053269;28;20025;-63
2021/06/01 01:20:35;;;;;;;4.47;2.60;;;;;;;6.95;81.82;98596.56;5056721;28;20057;-63
2021/06/01 01:23:12;;;;;;;3.58;2.70;;;;;;;7.01;81.45;98595.63;5052210;28;20036;-63
2021/06/01 01:25:53;;;;;;;3.55;2.78;;;;;;;6.94;81.01;98604.41;5053302;28;20091;-63
2021/06/01 01:28:43;;;;;;;3.78;2.88;;;;;;;6.86;80.95;98606.22;5054048;28;20030;-63
2021/06/01 01:31:33;;;;;;;4.43;3.08;;;;;;;6.83;80.91;98612.31;5054664;28;20053;-63
2021/06/01 01:34:00;;;;;;;5.15;2.75;;;;;;;6.75;81.18;98606.25;5053332;28;20025;-63
2021/06/01 01:36:26;;;;;;;7.05;3.00;;;;;;;6.80;81.53;98617.56;5052945;28;20025;-63
2021/06/01 01:38:53;;;;;;;4.93;2.80;;;;;;;6.80;81.50;98609.69;5053002;28;20028;-63
2021/06/01 01:41:19;;;;;;;3.65;2.90;;;;;;;6.75;81.11;98608.88;5052306;28;20025;-63
2021/06/01 01:43:51;;;;;;;3.60;2.90;;;;;;;6.80;80.93;98612.31;5059421;28;20028;-63
2021/06/01 01:49:00;;;;;;;3.88;3.05;;;;;;;6.72;82.09;98614.13;5060931;28;20339;-63
2021/06/01 01:51:39;;;;;;;3.63;2.88;;;;;;;6.75;81.17;98619.34;5051797;28;20021;-63
2021/06/01 01:54:21;;;;;;;4.57;2.92;;;;;;;6.73;81.57;98618.47;5055906;28;20013;-63
2021/06/01 01:56:50;;;;;;;5.03;2.93;;;;;;;6.62;81.21;98617.66;5050596;28;20029;-63
2021/06/01 01:59:19;;;;;;;6.50;2.60;;;;;;;6.59;81.17;98622.91;5061478;28;20029;-63
2021/06/01 02:01:48;;;;;;;3.22;2.72;;;;;;;6.59;81.42;98623.75;5061466;28;20017;-63
2021/06/01 02:04:25;;;;;;;4.03;2.90;;;;;;;6.48;80.34;98619.44;5062149;28;20053;-63
2021/06/01 02:06:55;;;;;;;3.92;2.67;;;;;;;6.28;81.48;98613.41;5061050;28;20024;-63
2021/06/01 02:09:22;;;;;;;4.68;2.95;;;;;;;6.34;81.63;98621.22;5056822;28;20024;-63
2021/06/01 02:11:47;;;;;;;4.35;3.20;;;;;;;6.33;82.13;98624.72;5060930;28;20020;-63
2021/06/01 02:14:13;;;;;;;3.42;2.85;;;;;;;6.41;81.73;98626.44;5060400;28;20044;-63
2021/06/01 02:16:41;;;;;;;4.30;3.20;;;;;;;6.32;81.56;98622.97;5056515;28;20100;-63
2021/06/01 02:19:10;;;;;;;7.00;2.72;;;;;;;6.37;81.27;98616.00;5060496;28;20020;-63
2021/06/01 02:22:15;;;;;;;4.63;2.95;;;;;;;6.38;81.18;98612.50;5050028;28;20017;-63
2021/06/01 02:24:56;;;;;;;4.75;2.97;;;;;;;6.28;81.33;98616.03;5057453;28;20064;-63
2021/06/01 02:27:31;;;;;;;3.63;2.83;;;;;;;6.14;81.99;98612.59;5061364;28;20052;-63
2021/06/01 02:30:09;;;;;;;5.78;2.72;;;;;;;6.14;82.01;98615.19;5059204;28;20066;-63
2021/06/01 02:32:52;;;;;;;5.50;2.97;;;;;;;6.13;81.47;98618.66;5061606;28;20024;-63
2021/06/01 02:35:30;;;;;;;3.67;2.55;;;;;;;6.11;81.85;98626.50;5059678;28;20351;-63
2021/06/01 02:38:00;;;;;;;3.85;3.03;;;;;;;5.99;81.77;98621.31;5052165;28;20017;-63
2021/06/01 02:40:27;;;;;;;4.63;2.92;;;;;;;5.89;81.83;98616.13;5050827;28;20220;-63
2021/06/01 02:42:53;;;;;;;3.20;2.60;;;;;;;5.97;82.23;98617.84;5052330;28;20048;-63
2021/06/01 02:45:21;;;;;;;4.18;2.33;;;;;;;5.91;81.49;98611.72;5052188;28;20023;-63
2021/06/01 02:47:46;;;;;;;4.47;2.90;;;;;;;5.91;82.20;98609.13;5051576;28;20051;-63
2021/06/01 02:50:15;;;;;;;4.10;2.88;;;;;;;5.97;81.72;98615.22;5055243;28;20016;-63
2021/06/01 02:52:43;;;;;;;3.88;2.90;;;;;;;5.82;81.99;98614.38;5059062;28;20014;-63
2021/06/01 02:55:11;;;;;;;4.57;3.00;;;;;;;5.80;82.31;98614.34;5051754;28;20235;-63
2021/06/01 02:57:41;;;;;;;6.60;3.40;;;;;;;5.74;82.32;98616.09;5057310;28;20024;-63
2021/06/01 03:00:09;;;;;;;4.25;2.90;;;;;;;5.79;81.97;98622.19;5052914;28;20025;-63
2021/06/01 03:02:35;;;;;;;4.32;3.15;;;;;;;5.87;81.99;98617.84;5058275;28;20023;-63
2021/06/01 03:05:00;;;;;;;4.75;3.35;;;;;;;5.72;82.06;98617.81;5059635;28;20044;-63
2021/06/01 03:07:25;;;;;;;4.15;2.83;;;;;;;5.69;81.98;98615.19;5060925;28;20328;-63
2021/06/01 03:09:51;;;;;;;5.35;3.28;;;;;;;5.69;82.62;98607.38;5057638;28;20038;-63
2021/06/01 03:12:25;;;;;;;5.07;3.35;;;;;;;5.59;83.08;98595.19;5055780;28;20391;-63
2021/06/01 03:14:50;;;;;;;5.25;3.20;;;;;;;5.59;82.55;98606.50;5050156;28;20017;-63
2021/06/01 03:17:16;;;;;;;4.10;2.58;;;;;;;5.56;82.74;98600.41;5054366;28;20028;-63
2021/06/01 03:19:41;;;;;;;4.60;2.60;;;;;;;5.66;82.57;98602.19;5050343;28;20025;-63
2021/06/01 03:22:07;;;;;;;4.93;3.22;;;;;;;5.64;82.32;98603.91;5049766;28;20063;-63
2021/06/01 03:24:33;;;;;;;4.95;3.10;;;;;;;5.45;82.12;98596.94;5048879;28;20036;-63
2021/06/01 03:26:58;;;;;;;4.03;2.92;;;;;;;5.44;83.28;98605.66;5048738;28;20052;-63
2021/06/01 03:29:24;;;;;;;4.40;3.33;;;;;;;5.46;83.03;98594.34;5049397;28;20033;-63
2021/06/01 03:31:50;;;;;;;3.50;2.78;;;;;;;5.55;82.62;98593.47;5049315;28;20025;-63
2021/06/01 03:34:15;;;;;;;3.35;2.92;;;;;;;5.57;82.57;98591.72;5050953;28;20025;-63
2021/06/01 03:36:41;;;;;;;5.97;3.00;;;;;;;5.55;82.33;98583.03;5051051;28;20124;-63
2021/06/01 03:39:08;;;;;;;3.78;3.08;;;;;;;5.43;82.77;98588.25;5050930;28;20022;-63
2021/06/01 03:41:34;;;;;;;3.80;3.30;;;;;;;5.30;82.09;98596.94;5049886;28;20035;-63
2021/06/01 03:43:59;;;;;;;4.43;3.05;;;;;;;5.34;81.95;98590.84;5050644;28;20211;-63
2021/06/01 03:46:25;;;;;;;4.65;2.90;;;;;;;5.39;81.84;98586.50;5052284;28;20021;-63
2021/06/01 03:48:50;;;;;;;5.93;3.03;;;;;;;5.48;82.61;98589.13;5059693;28;20031;-63
2021/06/01 03:51:15;;;;;;;3.38;2.53;;;;;;;5.50;81.74;98585.63;5058955;28;20028;-63
2021/06/01 03:53:41;;;;;;;4.10;2.83;;;;;;;5.41;82.29;98585.63;5061629;28;20093;-63
2021/06/01 03:56:06;;;;;;;3.97;2.75;;;;;;;5.30;82.32;98587.38;5063326;28;20079;-63
2021/06/01 03:58:32;;;;;;;3.83;2.85;;;;;;;5.27;82.50;98583.88;5059815;28;20020;-63
2021/06/01 04:00:57;;;;;;;4.75;3.33;;;;;;;5.36;83.18;98586.50;5056642;28;20021;-63
2021/06/01 04:03:22;;;;;;;5.63;3.42;;;;;;;5.36;82.62;98587.38;5058213;28;20089;-63
2021/06/01 04:05:48;;;;;;;4.35;3.28;;;;;;;5.41;82.55;98590.00;5058265;28;20031;-63
2021/06/01 04:08:13;;;;;;;4.35;2.92;;;;;;;5.45;81.83;98591.72;5055612;28;20025;-63
2021/06/01 04:10:39;;;;;;;4.00;3.30;;;;;;;5.30;82.95;98581.28;5050418;28;20021;-63
2021/06/01 04:13:04;;;;;;;5.53;3.30;;;;;;;5.27;82.79;98592.59;5049405;28;20024;-63
2021/06/01 04:15:30;;;;;;;4.03;3.08;;;;;;;5.39;82.38;98589.13;5048152;28;20320;-63
2021/06/01 04:17:55;;;;;;;4.63;3.00;;;;;;;5.49;82.39;98588.25;5064095;28;20057;-63
2021/06/01 04:20:21;;;;;;;5.25;3.03;;;;;;;5.49;82.70;98588.25;5064262;28;20035;-63
2021/06/01 04:22:47;;;;;;;4.57;3.28;;;;;;;5.31;83.41;98585.66;5064318;28;20021;-63
2021/06/01 04:25:12;;;;;;;10.48;3.47;;;;;;;5.24;84.13;98586.50;5064322;28;20025;-63
2021/06/01 04:27:38;;;;;;;5.72;3.63;;;;;;;5.37;82.62;98583.00;5064365;28;20044;-63
2021/06/01 04:30:06;;;;;;;3.38;2.70;;;;;;;5.45;83.61;98586.50;5064175;28;20040;-63
2021/06/01 04:32:31;;;;;;;6.18;2.85;;;;;;;6.03;82.96;98585.59;5064123;28;20213;-63
2021/06/01 04:34:56;;;;;;;8.95;2.80;;;;;;;7.15;77.74;98573.72;5064103;28;20029;-63
2021/06/01 04:37:22;;;;;;;3.90;2.70;;;;;;;8.20;72.70;98578.03;5064076;28;20028;-63
2021/06/01 04:39:47;;;;;;;4.10;2.67;;;;;;;9.05;68.03;98575.22;5064027;28;20368;-63
2021/06/01 04:42:13;;;;;;;2.58;1.90;;;;;;;10.01;65.46;98575.41;5063922;28;20092;-63
2021/06/01 04:44:38;;;;;;;4.10;2.28;;;;;;;10.21;65.48;98581.19;5063963;28;20025;-63
2021/06/01 04:47:04;;;;;;;2.75;2.03;;;;;;;11.21;61.91;98575.59;5063923;28;20035;-63
2021/06/01 04:49:29;;;;;;;4.43;2.03;;;;;;;11.60;61.34;98577.28;5063848;28;20025;-63
2021/06/01 04:51:55;;;;;;;5.60;2.30;;;;;;;12.06;59.01;98577.88;5063905;28;20020;-63
2021/06/01 04:54:20;;;;;;;2.05;1.77;;;;;;;12.45;58.61;98566.25;5063854;28;20031;-63
2021/06/01 04:56:45;;;;;;;4.75;2.50;;;;;;;13.03;57.73;98563.69;5063924;28;20032;-63
2021/06/01 04:59:11;;;;;;;3.17;2.22;;;;;;;13.60;57.29;98570.72;5063159;28;20275;-63
2021/06/01 05:01:37;;;;;;;2.83;1.80;;;;;;;13.78;56.87;98567.47;5063769;28;20032;-63
2021/06/01 05:04:02;;;;;;;3.60;2.83;;;;;;;14.45;55.99;98566.91;5063700;28;20028;-63
2021/06/01 05:06:27;;;;;;;2.58;1.90;;;;;;;14.41;56.26;98562.63;5063765;28;20025;-63
2021/06/01 05:08:53;;;;;;;4.72;1.88;;;;;;;14.88;55.28;98557.31;5063996;28;20243;-63
2021/06/01 05:11:20;;;;;;;1.85;1.65;;;;;;;15.28;53.12;98554.00;5063704;28;20063;-63
2021/06/01 05:13:45;;;;;;;1.92;1.60;;;;;;;15.27;52.43;98549.63;5063756;28;20024;-63
2021/06/01 05:16:10;;;;;;;2.28;1.85;;;;;;;15.56;52.56;98546.72;5063669;28;20043;-63
2021/06/01 05:18:36;;;;;;;3.65;1.95;;;;;;;16.02;49.98;98550.97;5063658;28;20032;-63
2021/06/01 05:21:02;;;;;;;4.88;2.30;;;;;;;15.61;52.13;98549.19;5063562;28;20335;-63
2021/06/01 05:23:27;;;;;;;2.28;2.00;;;;;;;16.16;50.89;98541.50;5063608;28;20025;-64
2021/06/01 05:25:54;;;;;;;2.97;1.95;;;;;;;16.57;51.40;98540.59;5063433;28;20267;-63
2021/06/01 05:28:20;;;;;;;5.70;2.05;;;;;;;16.86;50.13;98537.47;5063552;28;20027;-63
2021/06/01 05:33:33;;;;;;;2.00;1.80;;;;;;;17.66;50.07;98536.31;5063564;28;20020;-64
2021/06/01 05:35:58;;;;;;;4.78;2.20;;;;;;;17.42;49.91;98534.81;5063497;28;20196;-64
2021/06/01 05:38:26;;;;;;;2.70;2.13;;;;;;;17.99;48.84;98534.63;5063507;28;20062;-64
2021/06/01 05:40:53;;;;;;;2.60;1.70;;;;;;;18.47;48.28;98541.91;5063373;28;20145;-64
2021/06/01 05:43:19;;;;;;;2.60;1.85;;;;;;;18.79;49.99;98543.75;5063395;28;20035;-64
2021/06/01 05:45:44;;;;;;;2.55;1.95;;;;;;;19.15;48.47;98547.09;5063383;28;20083;-64
2021/06/01 05:48:11;;;;;;;1.98;1.70;;;;;;;19.64;48.76;98545.25;5063400;28;20044;-64
2021/06/01 05:50:38;;;;;;;3.08;2.00;;;;;;;20.10;48.17;98539.84;5063618;28;20023;-64
2021/06/01 05:53:07;;;;;;;3.72;2.25;;;;;;;20.67;44.86;98539.03;5063592;28;20042;-64
2021/06/01 05:55:34;;;;;;;5.70;2.05;;;;;;;20.96;43.80;98532.78;5063249;28;20025;-64
2021/06/01 05:58:00;;;;;;;3.55;2.20;;;;;;;21.40;41.90;98542.47;5063272;28;20048;-64
2021/06/01 06:00:28;;;;;;;1.88;1.60;;;;;;;20.91;39.43;98545.53;5063155;28;20016;-64
2021/06/01 06:02:54;;;;;;;3.78;1.80;;;;;;;21.55;40.58;98554.88;5063179;28;20066;-64
2021/06/01 06:05:19;;;;;;;2.33;1.77;;;;;;;22.42;38.28;98551.69;5063228;28;20070;-64
2021/06/01 06:07:45;;;;;;;5.18;2.08;;;;;;;22.42;39.85;98546.31;5063216;28;20029;-64
2021/06/01 06:10:11;;;;;;;2.85;1.77;;;;;;;22.69;37.02;98544.47;5065190;28;20185;-64
2021/06/01 06:12:37;;;;;;;2.72;1.90;;;;;;;23.10;44.22;98545.09;5067007;28;20376;-64
2021/06/01 06:15:11;;;;;;;2.42;1.60;;;;;;;22.79;35.56;98540.19;5066706;28;20271;-64
2021/06/01 06:17:37;;;;;;;2.75;1.80;;;;;;;23.35;39.97;98542.41;5066757;28;20224;-64
2021/06/01 06:20:05;;;;;;;3.83;1.63;;;;;;;23.48;36.03;98539.69;5066580;28;20025;-64
2021/06/01 06:22:31;;;;;;;4.80;1.63;;;;;;;23.95;38.89;98540.63;5066503;28;20119;-64
2021/06/01 06:24:56;;;;;;;6.50;1.80;;;;;;;24.11;34.98;98537.66;5066527;28;20024;-64
2021/06/01 06:27:22;;;;;;;3.58;1.80;;;;;;;23.10;33.76;98537.06;5066345;28;20078;-64
2021/06/01 06:29:47;;;;;;;1.48;1.38;;;;;;;23.55;33.68;98535.56;5066413;28;20029;-64
2021/06/01 06:32:13;;;;;;;1.92;1.58;;;;;;;23.80;33.50;98541.75;5066414;28;20024;-64
2021/06/01 06:34:38;;;;;;;1.92;1.40;;;;;;;23.96;35.36;98542.34;5066478;28;20439;-64
2021/06/01 06:37:04;;;;;;;1.85;1.52;;;;;;;23.52;32.33;98542.03;5066279;28;20020;-64
2021/06/01 06:39:31;;;;;;;3.25;1.50;;;;;;;23.57;32.59;98539.88;5066272;28;20047;-64
2021/06/01 06:41:56;;;;;;;1.80;1.50;;;;;;;22.74;33.99;98539.63;5066159;28;20085;-64
2021/06/01 06:44:22;;;;;;;3.25;1.40;;;;;;;23.54;32.03;98534.72;5066163;28;20029;-64
2021/06/01 06:47:41;;;;;;;2.28;1.67;;;;;;;23.38;34.37;98528.75;5066370;28;20255;-64
2021/06/01 06:49:38;;;;;;;2.75;1.20;;;;;;;24.12;33.15;98534.84;5068280;28;20041;-64
2021/06/01 06:52:09;;;;;;;1.40;1.20;;;;;;;24.44;32.63;98527.88;5065991;28;20305;-64
2021/06/01 06:54:34;;;;;;;1.77;1.27;;;;;;;24.41;29.48;98544.25;5066274;28;20044;-64
2021/06/01 06:56:59;;;;;;;1.25;1.13;;;;;;;24.32;29.74;98533.31;5065935;28;20025;-64
2021/06/01 06:59:25;;;;;;;1.73;1.17;;;;;;;24.33;29.92;98540.44;5065882;28;20025;-64
2021/06/01 07:01:50;;;;;;;3.00;1.40;;;;;;;24.69;29.67;98527.72;5065767;28;20032;-64
2021/06/01 07:04:15;;;;;;;1.58;1.17;;;;;;;24.58;28.40;98524.13;5065763;28;20088;-64
2021/06/01 07:06:41;;;;;;;2.83;1.50;;;;;;;24.72;27.76;98521.25;5065774;28;20025;-64
2021/06/01 07:09:07;;;;;;;2.28;1.13;;;;;;;24.73;27.57;98534.56;5065694;28;20028;-64
2021/06/01 07:11:34;;;;;;;3.75;1.70;;;;;;;23.56;27.83;98526.53;5065691;28;20295;-64
2021/06/01 07:14:10;;;;;;;2.55;1.20;;;;;;;24.35;28.71;98507.06;5065632;28;20028;-64
2021/06/01 07:16:37;;;;;;;1.50;1.30;;;;;;;24.27;28.34;98519.38;5065653;28;20323;-64
2021/06/01 07:19:03;;;;;;;3.42;1.40;;;;;;;24.32;27.76;98534.19;5065477;28;20029;-64
2021/06/01 07:21:29;;;;;;;3.13;1.40;;;;;;;25.12;26.23;98512.56;5064764;28;20025;-64
2021/06/01 07:23:54;;;;;;;1.65;1.25;;;;;;;24.16;27.34;98530.06;5065266;28;20032;-64
2021/06/01 07:26:20;;;;;;;2.75;1.10;;;;;;;23.52;27.54;98508.94;5065278;28;20112;-64
2021/06/01 07:28:45;;;;;;;2.88;1.30;;;;;;;23.36;26.91;98552.19;5065332;28;20024;-64
2021/06/01 07:31:14;;;;;;;2.50;1.23;;;;;;;24.14;27.53;98513.22;5065288;28;20044;-64
2021/06/01 07:33:40;;;;;;;2.60;1.38;;;;;;;24.60;25.65;98514.94;5065202;28;20092;-64
2021/06/01 07:36:06;;;;;;;1.42;1.20;;;;;;;24.71;26.08;98520.38;5065175;28;20027;-64
2021/06/01 07:38:32;;;;;;;3.42;1.40;;;;;;;23.70;26.37;98529.97;5065339;28;20056;-64
2021/06/01 07:40:58;;;;;;;1.33;1.10;;;;;;;23.89;28.25;98514.16;5065021;28;20080;-64
2021/06/01 07:43:24;;;;;;;2.50;1.13;;;;;;;24.69;25.82;98510.72;5065018;28;20088;-64
2021/06/01 07:45:49;;;;;;;2.00;1.30;;;;;;;24.46;25.84;98520.53;5064981;28;20028;-64
2021/06/01 07:48:14;;;;;;;1.58;1.20;;;;;;;24.37;25.96;98513.19;5065043;28;20032;-64
2021/06/01 07:50:40;;;;;;;3.97;1.10;;;;;;;24.52;26.31;98505.75;5065008;28;20048;-64
2021/06/01 07:53:05;;;;;;;2.15;1.33;;;;;;;24.29;25.30;98523.66;5064843;28;20335;-64
2021/06/01 07:55:32;;;;;;;1.52;1.17;;;;;;;23.58;25.66;98509.34;5064801;28;20025;-64
2021/06/01 07:57:58;;;;;;;2.08;1.05;;;;;;;24.70;24.31;98502.50;5064756;28;20048;-64
2021/06/01 08:00:23;;;;;;;2.33;1.20;;;;;;;24.02;24.69;98512.31;5064715;28;20197;-64
2021/06/01 08:02:50;;;;;;;1.80;1.00;;;;;;;23.93;25.86;98510.28;5064466;28;20025;-64
2021/06/01 08:05:16;;;;;;;2.13;1.10;;;;;;;23.75;24.82;98502.72;5064901;28;20363;-64
2021/06/01 08:07:42;;;;;;;2.05;1.20;;;;;;;24.87;24.09;98504.72;5064654;28;20053;-64
2021/06/01 08:10:08;;;;;;;2.25;1.02;;;;;;;24.71;24.40;98504.22;5064555;28;20029;-64
2021/06/01 08:12:34;;;;;;;2.05;1.30;;;;;;;24.59;25.34;98499.78;5064485;28;20084;-64
2021/06/01 08:15:00;;;;;;;1.98;1.08;;;;;;;26.06;23.23;98508.41;5064453;28;20316;-64
2021/06/01 08:17:26;;;;;;;2.88;1.05;;;;;;;26.04;22.68;98494.19;5064439;28;20021;-64
2021/06/01 08:19:53;;;;;;;2.50;1.08;;;;;;;25.96;22.44;98511.97;5064648;28;20320;-64
2021/06/01 08:24:47;;;;;;;1.88;1.10;;;;;;;24.84;23.35;98510.34;5064610;28;20051;-64
2021/06/01 08:27:12;;;;;;;1.35;1.00;;;;;;;25.72;21.94;98492.44;5064162;28;20104;-64
2021/06/01 08:29:38;;;;;;;2.88;1.30;;;;;;;25.42;22.90;98494.94;5064205;28;20031;-64
2021/06/01 08:32:04;;;;;;;1.10;1.00;;;;;;;25.32;22.93;98499.38;5064015;28;20396;-64
2021/06/01 08:34:30;;;;;;;1.05;0.98;;;;;;;26.37;21.88;98490.50;5063436;28;20028;-64
2021/06/01 08:36:56;;;;;;;1.88;0.90;;;;;;;26.45;23.58;98494.22;5064081;28;20029;-64
2021/06/01 08:39:26;;;;;;;1.67;0.95;;;;;;;26.78;22.98;98493.22;5064122;28;20035;-64
2021/06/01 08:41:53;;;;;;;1.20;0.98;;;;;;;27.36;21.67;98478.16;5064022;28;20033;-64
2021/06/01 08:44:19;;;;;;;1.35;1.00;;;;;;;27.24;20.93;98488.22;5064282;28;20024;-64
2021/06/01 08:46:49;;;;;;;2.90;0.88;;;;;;;26.87;21.17;98492.41;5063934;28;20028;-64
2021/06/01 08:49:16;;;;;;;2.43;1.30;;;;;;;26.40;21.81;98484.81;5063991;28;20044;-64
2021/06/01 08:51:43;;;;;;;1.45;0.93;;;;;;;26.41;21.68;98481.13;5063920;28;20044;-64
2021/06/01 08:54:09;;;;;;;1.70;1.05;;;;;;;26.73;22.46;98482.81;5063886;28;20025;-64
2021/06/01 08:56:34;;;;;;;1.63;1.00;;;;;;;27.14;20.54;98487.25;5064103;28;20212;-64
2021/06/01 08:59:00;;;;;;;1.13;0.90;;;;;;;26.73;20.91;98479.22;5063854;28;20025;-64
2021/06/01 09:01:25;;;;;;;3.20;1.10;;;;;;;26.79;21.57;98476.00;5063717;28;20045;-64
2021/06/01 09:03:54;;;;;;;1.25;1.00;;;;;;;26.84;21.86;98473.78;5063778;28;20091;-64
2021/06/01 09:06:34;;;;;;;4.85;1.10;;;;;;;27.57;21.07;98479.78;5063766;28;20021;-64
2021/06/01 09:20:58;;;;;;;2.03;0.90;;;;;;;27.51;20.57;98480.31;5063735;28;20024;-64
2021/06/01 09:22:44;;;;;;;1.42;1.10;;;;;;;27.34;21.89;98462.06;5063417;28;20088;-64
2021/06/01 09:28:13;;;;;;;1.33;1.17;;;;;;;27.13;21.65;98472.06;5063634;28;20240;-64
2021/06/01 09:30:43;;;;;;;1.23;0.90;;;;;;;27.09;20.98;98467.91;5063560;28;20092;-64
2021/06/01 09:33:30;;;;;;;4.93;1.25;;;;;;;25.98;21.75;98474.97;5063516;28;20224;-64
2021/06/01 09:35:57;;;;;;;3.25;1.05;;;;;;;26.48;21.37;98466.97;5063508;28;20354;-64
2021/06/01 09:38:47;;;;;;;1.13;1.02;;;;;;;26.77;21.42;98461.81;5063472;28;20021;-64
2021/06/01 09:41:18;;;;;;;1.98;1.40;;;;;;;26.99;22.53;98461.63;5063264;28;20044;-64
2021/06/01 09:43:56;;;;;;;2.13;1.13;;;;;;;26.99;21.87;98462.47;5063407;28;20108;-64
2021/06/01 09:46:26;;;;;;;2.65;1.30;;;;;;;26.89;22.71;98452.63;5067270;28;20093;-64
2021/06/01 09:48:55;;;;;;;1.42;1.10;;;;;;;26.32;21.96;98457.66;5067248;28;20028;-64
2021/06/01 09:51:36;;;;;;;1.35;1.10;;;;;;;25.83;22.87;98451.94;5067180;28;20036;-64
2021/06/01 09:54:46;;;;;;;1.77;1.10;;;;;;;26.43;21.97;98447.66;5067187;28;20080;-64
2021/06/01 09:57:31;;;;;;;1.75;1.10;;;;;;;26.60;23.19;98443.47;5067113;28;20091;-64
2021/06/01 10:00:19;;;;;;;1.52;1.20;;;;;;;27.04;23.72;98448.53;5067013;28;20032;-64
2021/06/01 10:02:48;;;;;;;5.28;1.00;;;;;;;27.48;20.68;98453.56;5066806;28;20032;-64
2021/06/01 10:05:22;;;;;;;2.25;1.02;;;;;;;27.15;22.02;98448.47;5066925;28;20271;-64
2021/06/01 10:07:49;;;;;;;1.65;1.23;;;;;;;26.72;23.39;98445.13;5066913;28;20029;-64
2021/06/01 10:10:18;;;;;;;1.95;1.05;;;;;;;26.91;23.21;98442.53;5066724;28;20037;-64
2021/06/01 10:12:47;;;;;;;2.88;1.20;;;;;;;26.45;22.10;98447.50;5067038;28;20028;-64
2021/06/01 10:15:14;;;;;;;1.77;1.20;;;;;;;26.82;23.12;98443.31;5066997;28;20025;-64
2021/06/01 10:17:40;;;;;;;1.88;1.20;;;;;;;26.55;23.79;98424.97;5066675;28;20024;-64
2021/06/01 10:20:06;;;;;;;1.80;1.17;;;;;;;26.76;22.38;98423.13;5066621;28;20084;-64
2021/06/01 10:22:32;;;;;;;1.17;0.98;;;;;;;27.08;22.98;98422.94;5066537;28;20312;-64
2021/06/01 10:24:58;;;;;;;2.45;1.15;;;;;;;26.91;22.45;98420.91;5066553;28;20074;-64
2021/06/01 10:27:24;;;;;;;1.83;1.20;;;;;;;27.06;23.20;98431.22;5065220;28;20336;-64
2021/06/01 10:29:49;;;;;;;1.30;1.00;;;;;;;26.32;23.52;98427.97;5066494;28;20032;-64
2021/06/01 10:32:16;;;;;;;2.10;1.10;;;;;;;25.89;24.10;98416.38;5066535;28;20024;-64
2021/06/01 10:34:43;;;;;;;2.60;1.13;;;;;;;26.24;25.75;98419.66;5066922;28;20025;-64
2021/06/01 10:42:48;;;;;;;1.55;1.27;;;;;;;26.17;24.30;98416.66;5066182;28;20024;-64
2021/06/01 10:51:00;;;;;;;3.72;1.10;;;;;;;24.90;24.42;98434.47;5066115;28;20090;-63
2021/06/01 10:53:36;;;;;;;3.40;1.88;;;;;;;25.20;25.18;98421.25;5066000;28;20315;-64
2021/06/01 10:56:04;;;;;;;1.48;1.20;;;;;;;25.16;24.41;98419.75;5065055;28;20084;-64
2021/06/01 10:58:38;;;;;;;1.15;1.00;;;;;;;25.27;24.43;98421.56;5065953;28;20228;-64
2021/06/01 11:04:29;;;;;;;1.92;1.13;;;;;;;25.66;25.06;98401.28;5065780;28;20067;-64
2021/06/01 11:07:25;;;;;;;4.45;1.20;;;;;;;25.12;24.81;98431.75;5065789;28;20070;-64
2021/06/01 11:09:48;;;;;;;1.80;1.10;;;;;;;25.53;24.37;98395.22;5065625;28;20108;-64
2021/06/01 11:12:14;;;;;;;2.90;1.60;;;;;;;25.67;24.54;98397.59;5065653;28;20016;-64
2021/06/01 11:14:40;;;;;;;2.15;1.30;;;;;;;25.85;24.27;98396.06;5065624;28;20021;-64
2021/06/01 11:17:06;;;;;;;1.83;1.20;;;;;;;25.77;23.13;98394.00;5065561;28;20320;-64
2021/06/01 11:19:58;;;;;;;1.92;1.20;;;;;;;25.35;24.12;98412.91;5065539;28;20021;-64
2021/06/01 11:22:41;;;;;;;2.72;1.35;;;;;;;25.37;23.39;98394.78;5065445;28;20021;-64
2021/06/01 11:35:44;;;;;;;3.42;1.20;;;;;;;24.71;25.48;98380.41;5065711;28;20212;-64
2021/06/01 11:43:10;;;;;;;2.27;1.13;;;;;;;24.14;26.91;98378.75;5065438;28;20025;-64
2021/06/01 11:45:44;;;;;;;4.75;1.40;;;;;;;24.09;26.36;98365.66;5065044;28;20324;-64
2021/06/01 11:51:15;;;;;;;4.10;1.30;;;;;;;23.96;27.20;98358.66;5064958;28;20027;-64
2021/06/01 11:54:02;;;;;;;2.75;1.17;;;;;;;23.69;26.67;98366.97;5064902;28;20347;-64
2021/06/01 12:18:56;;;;;;;3.50;1.40;;;;;;;23.44;27.49;98351.00;5064429;28;20092;-65
2021/06/01 12:21:36;;;;;;;3.25;1.20;;;;;;;23.37;26.46;98348.88;5064303;28;20032;-65
2021/06/01 12:24:15;;;;;;;2.33;1.30;;;;;;;23.22;29.28;98338.28;5064316;28;20066;-65
2021/06/01 12:32:23;;;;;;;;;;;;;;;23.46;28.48;98337.44;5064651;28;20083;-65
2021/06/01 12:43:47;;;;;;;2.50;1.20;;;;;;;23.33;27.97;98332.16;5064045;28;20366;-65
2021/06/01 13:19:28;;;;;;;2.88;1.40;;;;;;;23.20;27.82;98309.84;5064615;28;20100;-65
2021/06/01 13:30:12;;;;;;;1.73;1.05;;;;;;;23.28;26.87;98302.97;5067727;28;20021;-65
2021/06/01 13:30:26;;;;;;;1.50;1.20;;;;;;;23.36;27.05;98299.69;5067655;28;20040;-65
2021/06/01 13:38:41;;;;;;;1.73;1.00;;;;;;;23.33;26.14;98307.97;5067492;28;20097;-65
2021/06/01 13:46:47;;;;;;;3.25;1.08;;;;;;;23.16;25.59;98297.63;5067319;28;20028;-65
2021/06/01 13:51:58;;;;;;;4.45;1.40;;;;;;;23.20;25.53;98293.75;5067528;28;20021;-65
2021/06/01 15:30:11;;;;;;;2.88;1.25;;;;;;;23.26;23.89;98207.38;5065420;28;20059;-65
2021/06/01 15:49:39;;;;;;;2.10;1.40;;;;;;;23.32;28.03;98180.06;5065028;28;20031;-65
2021/06/01 15:53:11;;;;;;;3.13;1.23;;;;;;;23.19;27.26;98171.16;5065638;28;20029;-65
2021/06/01 16:43:42;;;;;;;2.10;1.17;;;;;;;23.18;25.25;98148.00;5056306;28;20205;-65
2021/06/01 17:11:15;;;;;;;2.28;1.40;;;;;;;22.92;28.60;98139.28;5054549;28;20041;-65
2021/06/01 17:13:52;;;;;;;2.08;1.10;;;;;;;22.94;28.11;98147.22;5055783;28;20041;-65
2021/06/01 17:17:05;;;;;;;1.55;1.10;;;;;;;22.98;27.55;98144.19;5056481;28;20021;-65